Terminal Aerodrome Forecast
Issued by NWS

Home | Current Version | Previous Version | Text Only | Print | Product List | Glossary On
Versions: 1 2 3 4 5 6 7 8 9 10 11 12 13 14 15 16 17 18 19 20 21 22 23 24 25 26 27 28
000
FTUS44 KLIX 171743
TAFHUM
TAF
KHUM 171743Z 1718/1818 30004KT 2SM RA BKN006 OVC020
     FM171900 26004KT 3SM SHRA BR OVC015
     FM172000 15004KT 4SM -SHRA BR OVC025
     FM180000 13004KT 5SM BR VCSH OVC025
     FM181000 00000KT 1/2SM FG VCSH OVC003
     FM181500 13004KT 3/4SM BR OVC003 PROB30 1815/1818 -SHRA BR=

USA.gov is the U.S. government's official web portal to all federal, state and local government web resources and services.